PVV9846 HKJK-HEAR
Flight info
| Callsign | PVV9846 |
|---|---|
| Flight time | N/A |
| Altitude | 28000 |
| Route | LOTAS UM308 RUDOL/N0520F290 M308 OKNET/N0513F310 M308 GWZ UM308 RANSO M308 KONET G650 RASKA/N0511F320 T513 EGMEG/N0514F310 G660 JDW/N0511F320 DCT YEN L677 RAGPU DCT SHM DCT SH425/N0498F330 DCT TBA |
| Aircraft | B742/H-SDFGHIRWY/L |
Departure
| Time | 2026-04-30 06:56 |
|---|---|
| Airport | Jomo Kenyatta International Airport (HKJK) |
Arrival
| Time | N/A |
|---|---|
| Airport | El Arish International Airport (HEAR) |
| Time | Latitude | Longitude | Altitude | Speed | Heading |
|---|---|---|---|---|---|
| 2026-04-30 06:39 | -1.33449 | 36.91459 | 5340 ft | 0 kts | 144° |
| 2026-04-30 06:46 | -1.33447 | 36.91457 | 5340 ft | 1 kts | 144° |
| 2026-04-30 06:46 | -1.33435 | 36.91448 | 5340 ft | 2 kts | 143° |
| 2026-04-30 06:46 | -1.33423 | 36.91439 | 5340 ft | 2 kts | 144° |
| 2026-04-30 06:46 | -1.33415 | 36.91434 | 5340 ft | 2 kts | 143° |
| 2026-04-30 06:47 | -1.33404 | 36.91423 | 5340 ft | 2 kts | 124° |
| 2026-04-30 06:47 | -1.33397 | 36.91410 | 5340 ft | 2 kts | 110° |
| 2026-04-30 06:47 | -1.33394 | 36.91396 | 5340 ft | 2 kts | 95° |
| 2026-04-30 06:47 | -1.33394 | 36.91381 | 5340 ft | 2 kts | 79° |
| 2026-04-30 06:48 | -1.33398 | 36.91367 | 5340 ft | 2 kts | 64° |
| 2026-04-30 06:48 | -1.33403 | 36.91358 | 5340 ft | 0 kts | 54° |
| 2026-04-30 06:48 | -1.33406 | 36.91355 | 5340 ft | 0 kts | 53° |
| 2026-04-30 06:51 | -1.33394 | 36.91372 | 5340 ft | 6 kts | 55° |
| 2026-04-30 06:51 | -1.33359 | 36.91420 | 5340 ft | 11 kts | 55° |
| 2026-04-30 06:51 | -1.33310 | 36.91489 | 5340 ft | 12 kts | 54° |
| 2026-04-30 06:52 | -1.33260 | 36.91558 | 5340 ft | 11 kts | 53° |
| 2026-04-30 06:52 | -1.33208 | 36.91615 | 5340 ft | 10 kts | 43° |
| 2026-04-30 06:52 | -1.33159 | 36.91657 | 5340 ft | 8 kts | 43° |
| 2026-04-30 06:52 | -1.33121 | 36.91698 | 5340 ft | 8 kts | 52° |
| 2026-04-30 06:53 | -1.33083 | 36.91749 | 5340 ft | 9 kts | 54° |
| 2026-04-30 06:53 | -1.33045 | 36.91797 | 5340 ft | 7 kts | 33° |
| 2026-04-30 06:53 | -1.32994 | 36.91807 | 5340 ft | 7 kts | 348° |
| 2026-04-30 06:53 | -1.32943 | 36.91781 | 5340 ft | 9 kts | 327° |
| 2026-04-30 06:54 | -1.32887 | 36.91743 | 5340 ft | 9 kts | 325° |
| 2026-04-30 06:54 | -1.32839 | 36.91709 | 5340 ft | 7 kts | 324° |
| 2026-04-30 06:54 | -1.32805 | 36.91684 | 5340 ft | 5 kts | 322° |
| 2026-04-30 06:54 | -1.32780 | 36.91665 | 5340 ft | 4 kts | 322° |
| 2026-04-30 06:55 | -1.32749 | 36.91653 | 5340 ft | 4 kts | 24° |
| 2026-04-30 06:55 | -1.32720 | 36.91684 | 5340 ft | 7 kts | 55° |
| 2026-04-30 06:55 | -1.32655 | 36.91774 | 5340 ft | 34 kts | 54° |
| 2026-04-30 06:55 | -1.32400 | 36.92128 | 5340 ft | 90 kts | 54° |
| 2026-04-30 06:56 | -1.31924 | 36.92780 | 5339 ft | 140 kts | 53° |
| 2026-04-30 06:56 | -1.31267 | 36.93684 | 5339 ft | 183 kts | 54° |
| 2026-04-30 06:56 | -1.30445 | 36.94807 | 5515 ft | 204 kts | 54° |
| 2026-04-30 06:56 | -1.29586 | 36.95930 | 5957 ft | 205 kts | 53° |
| 2026-04-30 06:57 | -1.28751 | 36.97095 | 6405 ft | 207 kts | 57° |
| 2026-04-30 06:57 | -1.27919 | 36.98255 | 6723 ft | 209 kts | 54° |
| 2026-04-30 06:57 | -1.27053 | 36.99461 | 7002 ft | 214 kts | 53° |
| 2026-04-30 06:57 | -1.26156 | 37.00688 | 7199 ft | 224 kts | 54° |
| 2026-04-30 06:58 | -1.25213 | 37.01981 | 7352 ft | 237 kts | 55° |
| 2026-04-30 06:58 | -1.24216 | 37.03348 | 7525 ft | 248 kts | 55° |
| 2026-04-30 06:58 | -1.23180 | 37.04770 | 7690 ft | 257 kts | 54° |
| 2026-04-30 06:58 | -1.22085 | 37.06273 | 7864 ft | 273 kts | 55° |
| 2026-04-30 06:59 | -1.20938 | 37.07847 | 8039 ft | 290 kts | 55° |
| 2026-04-30 06:59 | -1.19705 | 37.09541 | 8219 ft | 307 kts | 54° |
| 2026-04-30 06:59 | -1.18410 | 37.11319 | 8464 ft | 322 kts | 54° |
| 2026-04-30 06:59 | -1.17059 | 37.13173 | 8752 ft | 335 kts | 54° |
| 2026-04-30 07:00 | -1.15668 | 37.15081 | 9083 ft | 346 kts | 54° |
| 2026-04-30 07:00 | -1.14228 | 37.17058 | 9421 ft | 358 kts | 55° |
| 2026-04-30 07:00 | -1.12735 | 37.19107 | 9757 ft | 369 kts | 55° |
| 2026-04-30 07:00 | -1.11194 | 37.21222 | 10087 ft | 379 kts | 55° |
| 2026-04-30 07:01 | -1.09606 | 37.23343 | 10409 ft | 389 kts | 50° |
| 2026-04-30 07:01 | -1.07546 | 37.25162 | 10879 ft | 394 kts | 34° |
| 2026-04-30 07:01 | -1.05079 | 37.26378 | 11476 ft | 395 kts | 19° |
| 2026-04-30 07:01 | -1.02403 | 37.26929 | 12009 ft | 398 kts | 5° |
| 2026-04-30 07:02 | -0.99587 | 37.26789 | 12486 ft | 403 kts | 350° |
| 2026-04-30 07:02 | -0.96925 | 37.25956 | 12965 ft | 406 kts | 336° |
| 2026-04-30 07:02 | -0.94502 | 37.24459 | 13448 ft | 410 kts | 322° |
| 2026-04-30 07:02 | -0.92498 | 37.22387 | 13897 ft | 415 kts | 307° |
| 2026-04-30 07:03 | -0.91010 | 37.19877 | 14341 ft | 419 kts | 296° |
| 2026-04-30 07:03 | -0.89840 | 37.17244 | 14783 ft | 422 kts | 294° |
| 2026-04-30 07:03 | -0.88699 | 37.14523 | 15225 ft | 425 kts | 293° |
| 2026-04-30 07:03 | -0.87560 | 37.11768 | 15642 ft | 428 kts | 293° |
| 2026-04-30 07:04 | -0.86438 | 37.09043 | 16060 ft | 430 kts | 293° |
| 2026-04-30 07:04 | -0.85277 | 37.06227 | 16480 ft | 433 kts | 293° |
| 2026-04-30 07:04 | -0.84134 | 37.03455 | 16872 ft | 436 kts | 293° |
| 2026-04-30 07:04 | -0.82969 | 37.00633 | 17291 ft | 438 kts | 293° |
| 2026-04-30 07:05 | -0.80638 | 36.94991 | 18088 ft | 442 kts | 293° |
| 2026-04-30 07:05 | -0.79454 | 36.92127 | 18461 ft | 445 kts | 293° |
| 2026-04-30 07:05 | -0.78279 | 36.89281 | 18789 ft | 448 kts | 293° |
| 2026-04-30 07:06 | -0.77079 | 36.86373 | 19123 ft | 451 kts | 293° |
| 2026-04-30 07:06 | -0.75889 | 36.83501 | 19468 ft | 453 kts | 293° |
| 2026-04-30 07:06 | -0.74686 | 36.80608 | 19794 ft | 455 kts | 293° |
| 2026-04-30 07:06 | -0.73463 | 36.77671 | 20114 ft | 457 kts | 293° |
| 2026-04-30 07:07 | -0.72227 | 36.74707 | 20424 ft | 459 kts | 293° |
| 2026-04-30 07:07 | -0.71004 | 36.71780 | 20714 ft | 462 kts | 293° |
| 2026-04-30 07:07 | -0.69786 | 36.68814 | 20968 ft | 465 kts | 291° |
| 2026-04-30 07:07 | -0.68649 | 36.65751 | 21238 ft | 467 kts | 290° |
| 2026-04-30 07:08 | -0.67563 | 36.62718 | 21504 ft | 469 kts | 290° |
| 2026-04-30 07:08 | -0.66470 | 36.59645 | 21777 ft | 471 kts | 290° |
| 2026-04-30 07:08 | -0.65369 | 36.56542 | 22025 ft | 473 kts | 290° |
| 2026-04-30 07:08 | -0.64270 | 36.53447 | 22296 ft | 475 kts | 290° |
| 2026-04-30 07:09 | -0.63167 | 36.50347 | 22561 ft | 476 kts | 290° |
| 2026-04-30 07:09 | -0.61758 | 36.47331 | 22765 ft | 477 kts | 302° |
| 2026-04-30 07:09 | -0.59752 | 36.44715 | 23001 ft | 478 kts | 314° |
| 2026-04-30 07:09 | -0.57276 | 36.42532 | 23234 ft | 478 kts | 322° |
| 2026-04-30 07:10 | -0.54611 | 36.40521 | 23465 ft | 480 kts | 324° |
| 2026-04-30 07:10 | -0.51886 | 36.38548 | 23692 ft | 482 kts | 324° |
| 2026-04-30 07:10 | -0.49146 | 36.36579 | 23930 ft | 484 kts | 324° |
| 2026-04-30 07:10 | -0.46395 | 36.34600 | 24125 ft | 486 kts | 324° |
| 2026-04-30 07:11 | -0.43619 | 36.32599 | 24360 ft | 488 kts | 324° |
| 2026-04-30 07:11 | -0.40867 | 36.30611 | 24581 ft | 489 kts | 324° |
| 2026-04-30 07:11 | -0.38143 | 36.28547 | 24759 ft | 491 kts | 318° |
| 2026-04-30 07:11 | -0.35809 | 36.26048 | 24908 ft | 493 kts | 308° |
| 2026-04-30 07:12 | -0.33550 | 36.23469 | 25096 ft | 494 kts | 317° |
| 2026-04-30 07:12 | -0.30841 | 36.21384 | 25255 ft | 495 kts | 329° |
| 2026-04-30 07:12 | -0.27728 | 36.19887 | 25443 ft | 495 kts | 341° |
| 2026-04-30 07:12 | -0.24360 | 36.19057 | 25618 ft | 496 kts | 353° |
| 2026-04-30 07:13 | -0.20905 | 36.18932 | 25780 ft | 497 kts | 4° |
| 2026-04-30 07:13 | -0.17460 | 36.19410 | 25954 ft | 498 kts | 12° |
| 2026-04-30 07:13 | -0.14044 | 36.20219 | 26129 ft | 499 kts | 15° |
| 2026-04-30 07:13 | -0.10687 | 36.21166 | 26280 ft | 501 kts | 17° |
| 2026-04-30 07:14 | -0.07326 | 36.22167 | 26446 ft | 503 kts | 17° |
| 2026-04-30 07:14 | -0.03980 | 36.23172 | 26625 ft | 504 kts | 17° |
| 2026-04-30 07:14 | -0.00609 | 36.24178 | 26777 ft | 506 kts | 17° |
| 2026-04-30 07:14 | 0.02778 | 36.25178 | 26943 ft | 507 kts | 17° |
| 2026-04-30 07:15 | 0.06171 | 36.26174 | 27145 ft | 507 kts | 17° |
| 2026-04-30 07:15 | 0.09575 | 36.27167 | 27310 ft | 509 kts | 17° |
| 2026-04-30 07:15 | 0.13018 | 36.28170 | 27485 ft | 509 kts | 17° |
| 2026-04-30 07:15 | 0.16448 | 36.29169 | 27690 ft | 509 kts | 17° |
| 2026-04-30 07:16 | 0.19818 | 36.30150 | 27909 ft | 509 kts | 17° |
| 2026-04-30 07:16 | 0.23237 | 36.31144 | 28163 ft | 508 kts | 17° |
| 2026-04-30 07:16 | 0.26664 | 36.32142 | 28304 ft | 509 kts | 17° |
| 2026-04-30 07:16 | 0.30084 | 36.33137 | 28328 ft | 513 kts | 17° |
| 2026-04-30 07:17 | 0.37010 | 36.35152 | 28321 ft | 521 kts | 17° |
| 2026-04-30 07:18 | 0.47482 | 36.38200 | 28312 ft | 520 kts | 17° |
| 2026-04-30 07:18 | 0.54436 | 36.40225 | 28304 ft | 518 kts | 17° |
| 2026-04-30 07:19 | 0.61392 | 36.42249 | 28290 ft | 517 kts | 17° |
| 2026-04-30 07:19 | 0.68282 | 36.44254 | 28283 ft | 516 kts | 17° |
| 2026-04-30 07:20 | 0.75240 | 36.46279 | 28274 ft | 516 kts | 17° |
| 2026-04-30 07:20 | 0.82164 | 36.48294 | 28275 ft | 517 kts | 17° |
| 2026-04-30 07:21 | 0.89092 | 36.50311 | 28270 ft | 518 kts | 17° |
| 2026-04-30 07:21 | 0.96071 | 36.52343 | 28261 ft | 520 kts | 17° |
| 2026-04-30 07:22 | 1.06482 | 36.55389 | 28251 ft | 518 kts | 17° |
| 2026-04-30 07:22 | 1.13437 | 36.57438 | 28245 ft | 516 kts | 17° |
| 2026-04-30 07:23 | 1.20312 | 36.59463 | 28247 ft | 517 kts | 17° |
| 2026-04-30 07:23 | 1.27256 | 36.61507 | 28249 ft | 517 kts | 17° |
| 2026-04-30 07:24 | 1.34178 | 36.63544 | 28226 ft | 516 kts | 17° |
| 2026-04-30 07:24 | 1.41102 | 36.65582 | 28224 ft | 517 kts | 17° |
| 2026-04-30 07:25 | 1.48051 | 36.67626 | 28212 ft | 518 kts | 17° |
| 2026-04-30 07:25 | 1.55015 | 36.69675 | 28207 ft | 518 kts | 17° |
| 2026-04-30 07:26 | 1.61917 | 36.71707 | 28206 ft | 515 kts | 17° |
| 2026-04-30 07:26 | 1.68812 | 36.73737 | 28199 ft | 515 kts | 17° |
| 2026-04-30 07:27 | 1.75705 | 36.75766 | 28192 ft | 515 kts | 17° |
| 2026-04-30 07:27 | 1.82642 | 36.77808 | 28195 ft | 516 kts | 17° |
| 2026-04-30 07:28 | 1.89583 | 36.79852 | 28193 ft | 517 kts | 17° |
| 2026-04-30 07:28 | 1.96528 | 36.81897 | 28183 ft | 519 kts | 17° |
| 2026-04-30 07:29 | 2.03480 | 36.83944 | 28170 ft | 517 kts | 17° |
| 2026-04-30 07:29 | 2.10407 | 36.85984 | 28161 ft | 515 kts | 17° |
| 2026-04-30 07:30 | 2.20754 | 36.89032 | 28155 ft | 515 kts | 17° |
| 2026-04-30 07:31 | 2.27658 | 36.91067 | 28135 ft | 515 kts | 17° |
| 2026-04-30 07:31 | 2.34610 | 36.93115 | 28122 ft | 516 kts | 17° |
| 2026-04-30 07:32 | 2.41500 | 36.95144 | 28106 ft | 517 kts | 17° |
| 2026-04-30 07:32 | 2.48427 | 36.97185 | 28090 ft | 516 kts | 17° |
| 2026-04-30 07:33 | 2.55362 | 36.99229 | 28090 ft | 516 kts | 17° |
| 2026-04-30 07:33 | 2.62251 | 37.01259 | 28089 ft | 515 kts | 17° |
| 2026-04-30 07:34 | 2.69177 | 37.03301 | 28086 ft | 515 kts | 17° |
| 2026-04-30 07:34 | 2.76055 | 37.05328 | 28086 ft | 516 kts | 17° |
| 2026-04-30 07:35 | 2.82987 | 37.07372 | 28065 ft | 516 kts | 17° |
| 2026-04-30 07:35 | 2.89940 | 37.09422 | 28049 ft | 517 kts | 17° |
| 2026-04-30 07:36 | 2.96876 | 37.11468 | 28039 ft | 516 kts | 17° |
| 2026-04-30 07:36 | 3.03748 | 37.13495 | 28027 ft | 514 kts | 17° |
| 2026-04-30 07:37 | 3.10660 | 37.15533 | 28022 ft | 515 kts | 17° |
| 2026-04-30 07:37 | 3.17574 | 37.17574 | 28019 ft | 515 kts | 17° |
| 2026-04-30 07:38 | 3.24485 | 37.19613 | 28019 ft | 515 kts | 17° |
| 2026-04-30 07:38 | 3.31403 | 37.21655 | 28022 ft | 516 kts | 17° |
| 2026-04-30 07:39 | 3.38282 | 37.23685 | 28018 ft | 515 kts | 17° |
| 2026-04-30 07:39 | 3.45197 | 37.25726 | 28020 ft | 515 kts | 17° |
| 2026-04-30 07:40 | 3.52092 | 37.27762 | 28027 ft | 514 kts | 17° |
| 2026-04-30 07:40 | 3.58967 | 37.29791 | 28030 ft | 514 kts | 17° |
| 2026-04-30 07:41 | 3.65846 | 37.31823 | 28041 ft | 514 kts | 17° |
| 2026-04-30 07:41 | 3.72769 | 37.33868 | 28049 ft | 514 kts | 17° |
| 2026-04-30 07:42 | 3.79658 | 37.35903 | 28066 ft | 514 kts | 17° |
| 2026-04-30 07:42 | 3.83049 | 37.36904 | 28403 ft | 508 kts | 17° |
| 2026-04-30 07:42 | 3.86457 | 37.37911 | 28775 ft | 504 kts | 17° |
| 2026-04-30 07:42 | 3.89844 | 37.38913 | 29004 ft | 504 kts | 17° |
| 2026-04-30 07:43 | 3.93235 | 37.39915 | 29058 ft | 508 kts | 17° |
| 2026-04-30 07:43 | 4.00031 | 37.41921 | 29072 ft | 513 kts | 17° |
| 2026-04-30 07:44 | 4.06982 | 37.43832 | 29085 ft | 513 kts | 15° |
| 2026-04-30 07:44 | 4.13882 | 37.45674 | 29084 ft | 512 kts | 15° |
| 2026-04-30 07:45 | 4.20803 | 37.47536 | 29093 ft | 512 kts | 15° |
| 2026-04-30 07:45 | 4.27674 | 37.49394 | 29108 ft | 513 kts | 16° |
| 2026-04-30 07:46 | 4.34599 | 37.51268 | 29120 ft | 510 kts | 15° |
| 2026-04-30 07:46 | 4.41454 | 37.53124 | 29123 ft | 509 kts | 15° |
| 2026-04-30 07:47 | 4.48337 | 37.54987 | 29126 ft | 510 kts | 15° |
| 2026-04-30 07:47 | 4.55191 | 37.56844 | 29139 ft | 512 kts | 15° |
| 2026-04-30 07:48 | 4.62135 | 37.58725 | 29150 ft | 513 kts | 15° |
| 2026-04-30 07:48 | 4.69015 | 37.60589 | 29161 ft | 513 kts | 15° |
| 2026-04-30 07:49 | 4.75953 | 37.62468 | 29173 ft | 514 kts | 15° |
| 2026-04-30 07:49 | 4.82902 | 37.64351 | 29173 ft | 514 kts | 15° |
| 2026-04-30 07:50 | 4.89806 | 37.66225 | 29190 ft | 511 kts | 15° |
| 2026-04-30 07:50 | 4.96685 | 37.68094 | 29195 ft | 510 kts | 15° |
| 2026-04-30 07:51 | 5.03579 | 37.69965 | 29194 ft | 512 kts | 15° |
| 2026-04-30 07:51 | 5.10506 | 37.71844 | 29185 ft | 516 kts | 15° |
| 2026-04-30 07:52 | 5.17510 | 37.73745 | 29196 ft | 516 kts | 15° |
| 2026-04-30 07:52 | 5.24432 | 37.75624 | 29202 ft | 515 kts | 15° |
| 2026-04-30 07:53 | 5.31362 | 37.77506 | 29186 ft | 512 kts | 15° |
| 2026-04-30 07:53 | 5.38237 | 37.79372 | 29211 ft | 509 kts | 15° |
| 2026-04-30 07:54 | 5.45093 | 37.81234 | 29230 ft | 510 kts | 15° |
| 2026-04-30 07:54 | 5.51981 | 37.83105 | 29244 ft | 511 kts | 15° |
| 2026-04-30 07:55 | 5.58875 | 37.84978 | 29256 ft | 509 kts | 15° |
| 2026-04-30 07:55 | 5.65677 | 37.86827 | 29261 ft | 508 kts | 15° |
| 2026-04-30 07:56 | 5.72537 | 37.88692 | 29262 ft | 508 kts | 15° |
| 2026-04-30 07:56 | 5.79398 | 37.90557 | 29246 ft | 508 kts | 15° |
| 2026-04-30 07:57 | 5.86268 | 37.92425 | 29250 ft | 508 kts | 15° |
| 2026-04-30 07:57 | 5.93103 | 37.94284 | 29251 ft | 508 kts | 15° |
| 2026-04-30 07:58 | 5.99951 | 37.96148 | 29249 ft | 508 kts | 15° |
| 2026-04-30 07:58 | 6.06769 | 37.98004 | 29256 ft | 506 kts | 15° |
| 2026-04-30 07:59 | 6.13619 | 37.99869 | 29349 ft | 505 kts | 15° |
| 2026-04-30 07:59 | 6.20427 | 38.01724 | 29485 ft | 506 kts | 15° |
| 2026-04-30 08:00 | 6.27251 | 38.03583 | 29610 ft | 508 kts | 15° |
| 2026-04-30 08:00 | 6.30704 | 38.04524 | 29668 ft | 508 kts | 15° |
| 2026-04-30 08:00 | 6.37507 | 38.06377 | 29782 ft | 507 kts | 15° |
| 2026-04-30 08:01 | 6.44341 | 38.08240 | 29873 ft | 506 kts | 15° |
| 2026-04-30 08:01 | 6.51154 | 38.10097 | 29958 ft | 506 kts | 15° |
| 2026-04-30 08:02 | 6.61391 | 38.12876 | 30084 ft | 507 kts | 15° |
| 2026-04-30 08:03 | 6.68209 | 38.14720 | 30289 ft | 504 kts | 15° |
| 2026-04-30 08:03 | 6.74989 | 38.16556 | 30557 ft | 504 kts | 15° |
| 2026-04-30 08:03 | 6.78414 | 38.17484 | 30692 ft | 505 kts | 15° |
| 2026-04-30 08:04 | 6.81828 | 38.18409 | 30826 ft | 506 kts | 15° |
| 2026-04-30 08:04 | 6.85236 | 38.19332 | 30960 ft | 506 kts | 15° |
| 2026-04-30 08:04 | 6.87465 | 38.19936 | 31049 ft | 505 kts | 15° |
| 2026-04-30 08:04 | 6.92016 | 38.21170 | 31228 ft | 505 kts | 15° |
| 2026-04-30 08:05 | 6.95409 | 38.22090 | 31327 ft | 505 kts | 15° |
| 2026-04-30 08:05 | 7.02258 | 38.23947 | 31360 ft | 507 kts | 15° |
| 2026-04-30 08:06 | 7.07944 | 38.25489 | 31373 ft | 504 kts | 15° |
| 2026-04-30 08:06 | 7.15869 | 38.27640 | 31388 ft | 504 kts | 15° |
| 2026-04-30 08:07 | 7.22634 | 38.29477 | 31389 ft | 504 kts | 15° |
| 2026-04-30 08:07 | 7.29436 | 38.31324 | 31395 ft | 502 kts | 15° |
| 2026-04-30 08:08 | 7.36194 | 38.33159 | 31392 ft | 503 kts | 15° |
| 2026-04-30 08:08 | 7.42977 | 38.35002 | 31390 ft | 502 kts | 15° |
| 2026-04-30 08:09 | 7.48613 | 38.36531 | 31390 ft | 502 kts | 15° |
| 2026-04-30 08:09 | 7.56516 | 38.38515 | 31394 ft | 503 kts | 14° |
| 2026-04-30 08:10 | 7.63325 | 38.40187 | 31398 ft | 501 kts | 14° |
| 2026-04-30 08:10 | 7.70142 | 38.41873 | 31408 ft | 502 kts | 14° |
| 2026-04-30 08:11 | 7.76961 | 38.43567 | 31412 ft | 502 kts | 14° |
| 2026-04-30 08:11 | 7.83748 | 38.45256 | 31420 ft | 503 kts | 14° |
| 2026-04-30 08:12 | 7.90550 | 38.46948 | 31430 ft | 502 kts | 14° |
| 2026-04-30 08:12 | 7.97379 | 38.48648 | 31434 ft | 501 kts | 14° |
| 2026-04-30 08:13 | 8.04190 | 38.50344 | 31423 ft | 503 kts | 14° |
| 2026-04-30 08:13 | 8.11043 | 38.52050 | 31428 ft | 503 kts | 14° |
| 2026-04-30 08:14 | 8.17873 | 38.53753 | 31421 ft | 503 kts | 14° |
| 2026-04-30 08:14 | 8.24700 | 38.55457 | 31437 ft | 503 kts | 14° |
| 2026-04-30 08:15 | 8.31470 | 38.57149 | 31447 ft | 502 kts | 14° |
| 2026-04-30 08:15 | 8.38281 | 38.58851 | 31464 ft | 501 kts | 14° |
| 2026-04-30 08:16 | 8.45096 | 38.60554 | 31469 ft | 502 kts | 14° |
| 2026-04-30 08:16 | 8.51927 | 38.62262 | 31470 ft | 503 kts | 14° |
| 2026-04-30 08:17 | 8.58713 | 38.63960 | 31472 ft | 503 kts | 14° |
| 2026-04-30 08:17 | 8.65550 | 38.65672 | 31459 ft | 503 kts | 14° |
| 2026-04-30 08:18 | 8.72345 | 38.67383 | 31458 ft | 502 kts | 14° |
| 2026-04-30 08:18 | 8.79161 | 38.69094 | 31443 ft | 502 kts | 14° |
| 2026-04-30 08:19 | 8.84831 | 38.70515 | 31451 ft | 502 kts | 14° |
| 2026-04-30 08:19 | 8.92801 | 38.72513 | 31442 ft | 503 kts | 14° |
| 2026-04-30 08:20 | 8.99627 | 38.74225 | 31454 ft | 503 kts | 14° |
| 2026-04-30 08:20 | 9.06407 | 38.75925 | 31459 ft | 504 kts | 14° |
| 2026-04-30 08:21 | 9.13323 | 38.77168 | 31468 ft | 504 kts | 4° |
| 2026-04-30 08:21 | 9.20346 | 38.77384 | 31475 ft | 504 kts | 1° |
| 2026-04-30 08:22 | 9.27398 | 38.77488 | 31485 ft | 503 kts | 1° |
| 2026-04-30 08:22 | 9.33262 | 38.77615 | 31483 ft | 502 kts | 2° |
| 2026-04-30 08:23 | 9.41423 | 38.77828 | 31475 ft | 503 kts | 2° |
| 2026-04-30 08:23 | 9.48467 | 38.78020 | 31476 ft | 503 kts | 2° |
| 2026-04-30 08:24 | 9.54321 | 38.78180 | 31477 ft | 503 kts | 2° |
| 2026-04-30 08:24 | 9.61347 | 38.78371 | 31457 ft | 503 kts | 2° |
| 2026-04-30 08:25 | 9.68356 | 38.78562 | 31453 ft | 502 kts | 2° |
| 2026-04-30 08:25 | 9.75397 | 38.78754 | 31465 ft | 502 kts | 2° |
| 2026-04-30 08:26 | 9.82424 | 38.78945 | 31428 ft | 503 kts | 2° |
| 2026-04-30 08:26 | 9.90544 | 38.79166 | 31369 ft | 503 kts | 2° |
| 2026-04-30 08:27 | 9.97568 | 38.79358 | 31311 ft | 502 kts | 2° |
| 2026-04-30 08:27 | 10.04591 | 38.79549 | 31298 ft | 502 kts | 2° |
| 2026-04-30 08:28 | 10.11615 | 38.79741 | 31313 ft | 502 kts | 2° |
| 2026-04-30 08:28 | 10.17452 | 38.79900 | 31349 ft | 502 kts | 2° |
| 2026-04-30 08:29 | 10.24471 | 38.80092 | 31385 ft | 502 kts | 2° |
| 2026-04-30 08:29 | 10.31524 | 38.80284 | 31399 ft | 503 kts | 2° |
| 2026-04-30 08:30 | 10.39709 | 38.80508 | 31408 ft | 502 kts | 2° |
| 2026-04-30 08:30 | 10.45576 | 38.80668 | 31423 ft | 503 kts | 2° |
| 2026-04-30 08:31 | 10.52598 | 38.80861 | 31400 ft | 502 kts | 2° |
| 2026-04-30 08:31 | 10.59601 | 38.81052 | 31462 ft | 502 kts | 2° |
| 2026-04-30 08:32 | 10.66612 | 38.81244 | 31509 ft | 502 kts | 2° |
| 2026-04-30 08:32 | 10.73605 | 38.81435 | 31537 ft | 502 kts | 2° |
| 2026-04-30 08:33 | 10.80632 | 38.81628 | 31589 ft | 503 kts | 2° |
| 2026-04-30 08:33 | 10.87692 | 38.81821 | 31604 ft | 502 kts | 2° |
| 2026-04-30 08:34 | 10.94688 | 38.82013 | 31616 ft | 502 kts | 2° |
| 2026-04-30 08:34 | 11.02871 | 38.82238 | 31630 ft | 502 kts | 2° |
| 2026-04-30 08:35 | 11.09923 | 38.82432 | 31619 ft | 502 kts | 2° |
| 2026-04-30 08:35 | 11.15768 | 38.82593 | 31611 ft | 503 kts | 2° |
| 2026-04-30 08:36 | 11.22741 | 38.82785 | 31608 ft | 502 kts | 2° |
| 2026-04-30 08:36 | 11.29768 | 38.82978 | 31609 ft | 502 kts | 2° |
| 2026-04-30 08:37 | 11.37951 | 38.83203 | 31590 ft | 501 kts | 2° |
| 2026-04-30 08:37 | 11.43771 | 38.83363 | 31560 ft | 502 kts | 2° |
| 2026-04-30 08:38 | 11.50795 | 38.83557 | 31557 ft | 502 kts | 2° |
| 2026-04-30 08:38 | 11.57828 | 38.83751 | 31552 ft | 503 kts | 2° |
| 2026-04-30 08:39 | 11.64814 | 38.83942 | 31569 ft | 502 kts | 2° |
| 2026-04-30 08:39 | 11.71807 | 38.84135 | 31567 ft | 501 kts | 2° |
| 2026-04-30 08:40 | 11.78815 | 38.84328 | 31549 ft | 501 kts | 2° |
| 2026-04-30 08:40 | 11.85806 | 38.84521 | 31538 ft | 501 kts | 2° |
| 2026-04-30 08:41 | 11.92824 | 38.84714 | 31495 ft | 502 kts | 2° |
| 2026-04-30 08:41 | 11.99850 | 38.84909 | 31457 ft | 503 kts | 2° |
| 2026-04-30 08:42 | 12.06884 | 38.85103 | 31443 ft | 502 kts | 2° |
| 2026-04-30 08:42 | 12.13823 | 38.85294 | 31710 ft | 498 kts | 2° |
| 2026-04-30 08:42 | 12.17341 | 38.85392 | 31898 ft | 498 kts | 2° |
| 2026-04-30 08:43 | 12.20843 | 38.85488 | 32084 ft | 499 kts | 2° |
| 2026-04-30 08:43 | 12.24311 | 38.85584 | 32264 ft | 499 kts | 2° |
| 2026-04-30 08:43 | 12.27823 | 38.85681 | 32443 ft | 498 kts | 2° |
| 2026-04-30 08:43 | 12.31283 | 38.85777 | 32613 ft | 498 kts | 2° |
| 2026-04-30 08:44 | 12.34765 | 38.85874 | 32779 ft | 496 kts | 2° |
| 2026-04-30 08:44 | 12.38196 | 38.85970 | 32943 ft | 495 kts | 2° |
| 2026-04-30 08:44 | 12.41634 | 38.86066 | 33106 ft | 495 kts | 2° |
| 2026-04-30 08:44 | 12.45121 | 38.86164 | 33255 ft | 496 kts | 2° |
| 2026-04-30 08:45 | 12.48574 | 38.86261 | 33404 ft | 496 kts | 2° |
| 2026-04-30 08:45 | 12.52026 | 38.86357 | 33547 ft | 496 kts | 2° |
| 2026-04-30 08:45 | 12.55532 | 38.86455 | 33688 ft | 497 kts | 2° |
| 2026-04-30 08:45 | 12.58972 | 38.86551 | 33822 ft | 496 kts | 2° |
| 2026-04-30 08:46 | 12.62422 | 38.86648 | 33950 ft | 496 kts | 2° |
| 2026-04-30 08:46 | 12.65920 | 38.86746 | 34068 ft | 495 kts | 2° |
| 2026-04-30 08:46 | 12.69354 | 38.86842 | 34179 ft | 495 kts | 2° |
| 2026-04-30 08:46 | 12.72808 | 38.86939 | 34286 ft | 495 kts | 2° |
| 2026-04-30 08:47 | 12.76251 | 38.87035 | 34387 ft | 494 kts | 2° |
| 2026-04-30 08:47 | 12.79740 | 38.87133 | 34488 ft | 494 kts | 2° |
| 2026-04-30 08:47 | 12.83173 | 38.87229 | 34577 ft | 494 kts | 2° |
| 2026-04-30 08:48 | 12.90064 | 38.87423 | 34746 ft | 494 kts | 2° |
| 2026-04-30 08:48 | 12.96990 | 38.87590 | 34901 ft | 496 kts | 1° |
| 2026-04-30 08:49 | 13.03905 | 38.87708 | 35052 ft | 495 kts | 1° |
| 2026-04-30 08:49 | 13.10795 | 38.87824 | 35182 ft | 494 kts | 1° |
| 2026-04-30 08:50 | 13.17708 | 38.87946 | 35301 ft | 494 kts | 1° |
| 2026-04-30 08:50 | 13.24640 | 38.88071 | 35408 ft | 495 kts | 1° |
| 2026-04-30 08:51 | 13.31537 | 38.88195 | 35508 ft | 494 kts | 1° |